Cannon Ball, North Dakota
Current Conditions -  °F | °C
As of 5:35 AM on Monday 22 Dec 2014 (Local Time) from K7L2 Reporting Station
Moderate Fog Moderate Fog  
Wind Chill: 27°   Ceiling: 100
Heat Index: 27°   Visibility: 0.5mi
Dew Point: 27°   Wind: 0mph
Humidity: 100%   Direction: NA
Pressure: 29.43"   Gusts: NA
Location:  46.4°N, 100.6°W
Report Text: K7L2 221235Z AUTO 00000KT 1/2SM FZFG OVC001 M03/M03 A2943 RMK AO2
Loading
Personal Weather Stations






























Interactive Weather Map New forecast layout! Learn more

10-Day Weather Forecast

Advertisements
Track Severe Weather on mobile